createdAt,value
2022-11-08T00:01:32.358Z,12.10
2022-11-08T00:04:01.874Z,12.10
2022-11-08T00:06:48.982Z,12.10
2022-11-08T00:09:34.879Z,12.10
2022-11-08T00:12:20.726Z,12.10
2022-11-08T00:14:48.868Z,12.10
2022-11-08T00:17:18.214Z,12.10
2022-11-08T00:19:46.793Z,12.10
2022-11-08T00:22:17.904Z,12.10
2022-11-08T00:24:46.288Z,12.10
2022-11-08T00:27:16.497Z,12.00
2022-11-08T00:29:44.738Z,11.90
2022-11-08T00:32:15.475Z,11.90
2022-11-08T00:34:43.631Z,11.90
2022-11-08T00:37:12.284Z,11.90
2022-11-08T00:39:42.199Z,11.90
2022-11-08T00:42:10.878Z,11.70
2022-11-08T00:44:39.245Z,11.80
2022-11-08T00:47:07.439Z,11.70
2022-11-08T00:49:35.521Z,11.70
2022-11-08T00:52:03.647Z,11.70
2022-11-08T00:54:31.937Z,11.80
2022-11-08T00:57:01.452Z,11.70
2022-11-08T00:59:29.553Z,11.70
2022-11-08T01:01:57.863Z,11.70
2022-11-08T01:04:26.038Z,11.50
2022-11-08T01:06:54.171Z,11.50
2022-11-08T01:09:22.283Z,11.50
2022-11-08T01:11:50.408Z,11.40
2022-11-08T01:14:19.986Z,11.50
2022-11-08T01:16:48.044Z,11.50
2022-11-08T01:19:16.184Z,11.50
2022-11-08T01:21:44.314Z,11.40
2022-11-08T01:24:12.424Z,11.40
2022-11-08T01:26:40.632Z,11.30
2022-11-08T01:29:08.753Z,11.20
2022-11-08T01:31:38.254Z,10.90
2022-11-08T01:34:06.414Z,10.90
2022-11-08T01:36:34.519Z,11.00
2022-11-08T01:39:02.635Z,10.90
2022-11-08T01:41:30.765Z,10.90
2022-11-08T01:44:00.552Z,10.80
2022-11-08T01:46:41.294Z,10.80
2022-11-08T01:49:40.218Z,10.80
2022-11-08T01:52:19.668Z,10.80
2022-11-08T01:55:03.575Z,10.80
2022-11-08T01:57:37.323Z,10.90
2022-11-08T02:00:10.203Z,10.90
2022-11-08T02:02:41.955Z,10.90
2022-11-08T02:05:24.903Z,10.90
2022-11-08T02:07:57.667Z,10.80
2022-11-08T02:10:30.528Z,10.80
2022-11-08T02:13:03.717Z,10.80
2022-11-08T02:15:33.052Z,10.80
2022-11-08T02:18:03.026Z,10.80
2022-11-08T02:20:31.780Z,10.70
2022-11-08T02:23:06.848Z,10.60
2022-11-08T02:25:36.349Z,10.60
2022-11-08T02:28:04.756Z,10.50
2022-11-08T02:30:36.408Z,10.30
2022-11-08T02:33:16.111Z,10.20
2022-11-08T02:35:47.580Z,10.20
2022-11-08T02:38:16.097Z,10.10
2022-11-08T02:40:50.331Z,9.90
2022-11-08T02:43:18.903Z,10.00
2022-11-08T02:45:47.040Z,10.10
2022-11-08T02:48:17.777Z,10.20
2022-11-08T02:50:46.179Z,10.20
2022-11-08T02:53:14.601Z,10.30
2022-11-08T02:55:42.969Z,10.10
2022-11-08T02:58:13.130Z,10.20
2022-11-08T03:00:41.758Z,10.30
2022-11-08T03:03:09.829Z,10.40
2022-11-08T03:05:37.963Z,10.50
2022-11-08T03:08:06.413Z,10.50
2022-11-08T03:10:34.528Z,10.40
2022-11-08T03:13:05.551Z,10.40
2022-11-08T03:15:35.108Z,10.40
2022-11-08T03:18:03.283Z,10.40
2022-11-08T03:20:33.289Z,10.40
2022-11-08T03:23:03.383Z,10.40
2022-11-08T03:25:31.862Z,10.40
2022-11-08T03:28:03.030Z,10.30
2022-11-08T03:30:31.182Z,10.30
2022-11-08T03:33:00.781Z,10.30
2022-11-08T03:35:29.062Z,10.20
2022-11-08T03:37:58.777Z,10.20
2022-11-08T03:40:27.713Z,10.30
2022-11-08T03:42:57.691Z,10.30
2022-11-08T03:45:25.930Z,10.20
2022-11-08T03:47:54.068Z,10.10
2022-11-08T03:50:23.619Z,10.20
2022-11-08T03:52:53.141Z,10.10
2022-11-08T03:55:23.317Z,9.90
2022-11-08T03:57:51.940Z,9.70
2022-11-08T04:00:22.320Z,9.60
2022-11-08T04:02:50.788Z,9.50
2022-11-08T04:05:19.699Z,9.60
2022-11-08T04:07:49.512Z,9.50
2022-11-08T04:10:18.812Z,9.40
2022-11-08T04:13:04.265Z,9.40
2022-11-08T04:15:32.951Z,9.50
2022-11-08T04:18:18.763Z,9.40
2022-11-08T04:21:05.929Z,9.30
2022-11-08T04:23:36.527Z,9.20
2022-11-08T04:26:07.254Z,8.90
2022-11-08T04:28:37.446Z,8.80
2022-11-08T04:31:07.391Z,8.80
2022-11-08T04:33:35.826Z,8.80
2022-11-08T04:36:05.610Z,8.90
2022-11-08T04:38:35.528Z,9.10
2022-11-08T04:41:05.624Z,9.10
2022-11-08T04:43:34.685Z,9.10
2022-11-08T04:46:04.582Z,9.30
2022-11-08T04:48:33.171Z,9.30
2022-11-08T04:51:05.592Z,9.20
2022-11-08T04:53:35.455Z,9.30
2022-11-08T04:56:05.639Z,9.30
2022-11-08T04:58:37.926Z,9.30
2022-11-08T05:01:07.656Z,9.40
2022-11-08T05:03:36.581Z,9.20
2022-11-08T05:06:06.445Z,9.30
2022-11-08T05:08:36.058Z,9.40
2022-11-08T05:11:05.456Z,9.50
2022-11-08T05:13:34.790Z,9.50
2022-11-08T05:16:04.411Z,9.60
2022-11-08T05:18:33.373Z,9.40
2022-11-08T05:21:20.128Z,9.30
2022-11-08T05:23:51.777Z,9.10
2022-11-08T05:26:21.221Z,9.20
2022-11-08T05:28:49.513Z,9.20
2022-11-08T05:31:17.723Z,9.30
2022-11-08T05:33:46.270Z,9.20
2022-11-08T05:36:16.411Z,9.10
2022-11-08T05:38:44.670Z,9.20
2022-11-08T05:41:16.178Z,9.30
2022-11-08T05:43:46.348Z,9.10
2022-11-08T05:46:14.997Z,9.20
2022-11-08T05:48:43.961Z,9.20
2022-11-08T05:51:12.908Z,9.30
2022-11-08T05:53:41.399Z,9.30
2022-11-08T05:56:09.773Z,9.30
2022-11-08T05:58:39.326Z,9.30
2022-11-08T06:01:09.774Z,9.20
2022-11-08T06:03:38.114Z,9.10
2022-11-08T06:06:08.736Z,9.20
2022-11-08T06:08:37.348Z,9.10
2022-11-08T06:11:06.719Z,9.20
2022-11-08T06:13:35.180Z,9.10
2022-11-08T06:16:06.927Z,9.20
2022-11-08T06:18:37.388Z,9.30
2022-11-08T06:21:07.506Z,9.40
2022-11-08T06:23:36.084Z,9.40
2022-11-08T06:26:04.998Z,9.40
2022-11-08T06:28:33.300Z,9.40
2022-11-08T06:31:02.585Z,9.40
2022-11-08T06:33:32.556Z,9.20
2022-11-08T06:36:00.745Z,9.20
2022-11-08T06:38:29.099Z,9.20
2022-11-08T06:41:01.148Z,9.20
2022-11-08T06:43:29.753Z,9.10
2022-11-08T06:46:01.687Z,9.00
2022-11-08T06:48:35.563Z,9.00
2022-11-08T06:51:06.097Z,9.00
2022-11-08T06:53:34.711Z,9.10
2022-11-08T06:56:03.727Z,9.10
2022-11-08T06:58:32.664Z,9.10
2022-11-08T07:01:04.631Z,9.10
2022-11-08T07:03:32.868Z,9.10
2022-11-08T07:06:02.962Z,9.00
2022-11-08T07:08:32.674Z,8.90
2022-11-08T07:11:01.076Z,8.90
2022-11-08T07:13:29.318Z,9.00
2022-11-08T07:15:59.762Z,9.10
2022-11-08T07:18:28.280Z,9.20
2022-11-08T07:21:00.667Z,9.40
2022-11-08T07:23:29.093Z,9.60
2022-11-08T07:26:02.473Z,9.70
2022-11-08T07:28:31.347Z,9.70
2022-11-08T07:31:01.405Z,9.70
2022-11-08T07:33:29.998Z,9.80
2022-11-08T07:35:58.354Z,9.90
2022-11-08T07:38:27.100Z,10.00
2022-11-08T07:40:58.987Z,9.90
2022-11-08T07:43:28.072Z,10.00
2022-11-08T07:46:01.773Z,10.10
2022-11-08T07:48:31.629Z,10.10
2022-11-08T07:50:59.838Z,10.20
2022-11-08T07:53:27.977Z,10.20
2022-11-08T07:55:58.150Z,10.20
2022-11-08T07:58:27.731Z,10.20
2022-11-08T08:01:01.771Z,10.30
2022-11-08T08:03:30.239Z,10.30
2022-11-08T08:06:01.359Z,10.20
2022-11-08T08:08:30.678Z,10.00
2022-11-08T08:11:00.180Z,10.00
2022-11-08T08:13:29.919Z,10.00
2022-11-08T08:16:00.910Z,10.20
2022-11-08T08:18:29.332Z,10.30
2022-11-08T08:20:57.641Z,10.40
2022-11-08T08:23:25.896Z,10.40
2022-11-08T08:26:12.688Z,10.60
2022-11-08T08:28:42.185Z,10.70
2022-11-08T08:31:10.363Z,10.80
2022-11-08T08:33:38.713Z,10.80
2022-11-08T08:36:07.597Z,10.90
2022-11-08T08:38:40.022Z,11.10
2022-11-08T08:41:11.446Z,11.10
2022-11-08T08:43:39.644Z,11.20
2022-11-08T08:46:09.334Z,11.10
2022-11-08T08:48:38.814Z,11.10
2022-11-08T08:51:07.250Z,11.20
2022-11-08T08:53:35.384Z,11.30
2022-11-08T08:56:05.826Z,11.40
2022-11-08T08:58:34.045Z,11.60
2022-11-08T09:03:52.679Z,11.60
2022-11-08T09:06:20.913Z,11.70
2022-11-08T09:08:49.457Z,11.60
2022-11-08T09:11:17.935Z,11.80
2022-11-08T09:13:46.084Z,11.80
2022-11-08T09:16:14.567Z,11.80
2022-11-08T09:18:45.744Z,12.00
2022-11-08T09:21:15.493Z,12.40
2022-11-08T09:23:43.773Z,12.90
2022-11-08T09:26:12.389Z,12.80
2022-11-08T09:28:40.575Z,13.00
2022-11-08T09:31:10.351Z,13.10
2022-11-08T09:33:39.860Z,13.30
2022-11-08T09:36:09.818Z,13.40
2022-11-08T09:38:39.321Z,13.50
2022-11-08T09:41:22.957Z,13.60
2022-11-08T09:44:03.231Z,13.60
2022-11-08T09:46:39.329Z,13.80
2022-11-08T09:49:12.471Z,13.90
2022-11-08T09:51:42.052Z,13.90
2022-11-08T09:54:19.557Z,14.00
2022-11-08T09:56:49.009Z,14.20
2022-11-08T09:59:33.564Z,14.30
2022-11-08T10:02:01.878Z,14.50
2022-11-08T10:04:33.105Z,14.60
2022-11-08T10:07:16.699Z,14.40
2022-11-08T10:10:29.504Z,14.40
2022-11-08T10:13:10.845Z,14.50
2022-11-08T10:15:47.554Z,14.60
2022-11-08T10:18:53.677Z,14.70
2022-11-08T10:21:54.447Z,14.70
2022-11-08T10:24:45.981Z,14.90
2022-11-08T10:27:34.152Z,15.10
2022-11-08T10:30:20.982Z,15.40
2022-11-08T10:33:17.234Z,15.70
2022-11-08T10:36:04.006Z,15.90
2022-11-08T10:38:55.145Z,16.00
2022-11-08T10:41:44.287Z,16.10
2022-11-08T10:44:30.074Z,16.10
2022-11-08T10:47:17.824Z,16.20
2022-11-08T10:50:04.371Z,16.40
2022-11-08T10:52:54.902Z,16.50
2022-11-08T10:55:49.260Z,16.60
2022-11-08T10:58:37.360Z,16.80
2022-11-08T11:01:23.277Z,17.00
2022-11-08T11:04:23.626Z,17.30
2022-11-08T11:07:25.629Z,17.30
2022-11-08T11:10:22.613Z,17.40
2022-11-08T11:13:06.756Z,17.70
2022-11-08T11:15:51.940Z,17.90
2022-11-08T11:18:38.637Z,18.10
2022-11-08T11:21:24.060Z,18.30
2022-11-08T11:24:10.755Z,18.10
2022-11-08T11:27:07.093Z,18.20
2022-11-08T11:29:50.307Z,18.10
2022-11-08T11:32:36.387Z,18.20
2022-11-08T11:35:21.821Z,18.50
2022-11-08T11:38:07.831Z,18.70
2022-11-08T11:40:52.850Z,18.70
2022-11-08T11:43:38.714Z,18.70
2022-11-08T11:46:24.641Z,18.70
2022-11-08T11:49:13.542Z,18.60
2022-11-08T11:51:58.229Z,18.70
2022-11-08T11:54:41.885Z,18.70
2022-11-08T11:57:31.280Z,18.90
2022-11-08T12:00:15.433Z,18.90
2022-11-08T12:03:25.604Z,18.80
2022-11-08T12:06:18.483Z,18.70
2022-11-08T12:09:14.122Z,18.80
2022-11-08T12:12:04.702Z,18.70
2022-11-08T12:14:57.261Z,18.60
2022-11-08T12:17:50.901Z,18.50
2022-11-08T12:20:39.150Z,18.40
2022-11-08T12:23:44.515Z,18.60
2022-11-08T12:26:33.512Z,18.60
2022-11-08T12:29:27.269Z,18.70
2022-11-08T12:32:26.803Z,18.70
2022-11-08T12:35:16.287Z,18.70
2022-11-08T12:38:05.759Z,18.70
2022-11-08T12:40:53.692Z,18.60
2022-11-08T12:43:43.371Z,18.50
2022-11-08T12:46:27.358Z,18.60
2022-11-08T12:49:16.701Z,18.60
2022-11-08T12:52:09.859Z,18.60
2022-11-08T12:54:54.148Z,18.50
2022-11-08T12:57:37.359Z,18.50
2022-11-08T13:00:22.178Z,18.40
2022-11-08T13:03:20.517Z,18.30
2022-11-08T13:06:09.121Z,18.20
2022-11-08T13:08:59.026Z,18.20
2022-11-08T13:11:50.172Z,18.10
2022-11-08T13:14:41.167Z,18.10
2022-11-08T13:17:29.725Z,18.30
2022-11-08T13:20:39.540Z,18.20
2022-11-08T13:23:30.388Z,18.30
2022-11-08T13:26:20.531Z,18.30
2022-11-08T13:29:14.433Z,18.30
2022-11-08T13:32:02.493Z,18.30
2022-11-08T13:34:55.328Z,18.30
2022-11-08T13:37:48.224Z,18.30
2022-11-08T13:40:42.561Z,18.30
2022-11-08T13:43:29.701Z,18.10
2022-11-08T13:46:35.028Z,18.00
2022-11-08T13:49:24.048Z,17.90
2022-11-08T13:52:30.920Z,17.90
2022-11-08T13:55:32.363Z,17.90
2022-11-08T13:58:34.889Z,17.90
2022-11-08T14:01:49.119Z,18.00
2022-11-08T14:04:38.682Z,18.00
2022-11-08T14:07:28.559Z,18.10
2022-11-08T14:10:18.736Z,18.20
2022-11-08T14:13:11.136Z,18.30
2022-11-08T14:15:57.829Z,18.30
2022-11-08T14:18:46.747Z,18.10
2022-11-08T14:21:33.528Z,18.20
2022-11-08T14:24:22.446Z,18.20
2022-11-08T14:27:12.099Z,18.10
2022-11-08T14:30:02.182Z,18.20
2022-11-08T14:32:50.433Z,18.30
2022-11-08T14:35:37.149Z,18.30
2022-11-08T14:38:24.307Z,18.30
2022-11-08T14:41:15.549Z,18.50
2022-11-08T14:44:03.244Z,18.40
2022-11-08T14:46:50.057Z,18.30
2022-11-08T14:49:38.396Z,18.20
2022-11-08T14:52:27.926Z,18.20
2022-11-08T14:55:15.787Z,18.10
2022-11-08T14:58:13.112Z,18.00
2022-11-08T15:01:01.649Z,18.00
2022-11-08T15:03:52.600Z,18.00
2022-11-08T15:06:42.002Z,18.00
2022-11-08T15:09:30.390Z,17.90
2022-11-08T15:12:18.408Z,17.90
2022-11-08T15:15:05.480Z,18.10
2022-11-08T15:18:06.269Z,18.20
2022-11-08T15:20:56.987Z,18.20
2022-11-08T15:23:47.921Z,18.00
2022-11-08T15:26:36.155Z,17.90
2022-11-08T15:29:25.481Z,17.80
2022-11-08T15:32:17.208Z,17.90
2022-11-08T15:35:04.680Z,17.70
2022-11-08T15:37:52.799Z,17.40
2022-11-08T15:40:49.579Z,17.30
2022-11-08T15:43:37.689Z,17.50
2022-11-08T15:46:27.196Z,17.40
2022-11-08T15:49:16.150Z,17.30
2022-11-08T15:52:03.651Z,17.10
2022-11-08T15:54:50.392Z,17.00
2022-11-08T15:57:40.723Z,16.80
2022-11-08T16:00:29.815Z,16.70
2022-11-08T16:03:16.685Z,16.60
2022-11-08T16:06:03.614Z,16.50
2022-11-08T16:08:50.423Z,16.30
2022-11-08T16:11:38.522Z,16.30
2022-11-08T16:14:26.653Z,16.30
2022-11-08T16:17:14.750Z,16.40
2022-11-08T16:20:01.608Z,16.30
2022-11-08T16:22:48.789Z,16.00
2022-11-08T16:25:37.981Z,15.90
2022-11-08T16:28:29.792Z,15.60
2022-11-08T16:31:18.853Z,15.60
2022-11-08T16:34:24.527Z,15.50
2022-11-08T16:37:12.350Z,15.20
2022-11-08T16:39:59.228Z,15.20
2022-11-08T16:42:46.647Z,15.10
2022-11-08T16:46:03.108Z,15.20
2022-11-08T16:48:47.537Z,15.30
2022-11-08T16:51:34.722Z,15.30
2022-11-08T16:54:28.307Z,15.30
2022-11-08T16:57:45.406Z,15.10
2022-11-08T17:03:27.459Z,15.10
2022-11-08T17:06:19.105Z,15.10
2022-11-08T17:09:05.339Z,15.10
2022-11-08T17:11:34.189Z,15.10
2022-11-08T17:14:03.500Z,15.10
2022-11-08T17:16:32.351Z,15.00
2022-11-08T17:19:21.261Z,14.80
2022-11-08T17:21:51.010Z,15.00
2022-11-08T17:24:21.974Z,15.00
2022-11-08T17:26:51.566Z,15.10
2022-11-08T17:29:20.019Z,15.10
2022-11-08T17:31:48.920Z,15.00
2022-11-08T17:34:17.513Z,15.00
2022-11-08T17:36:47.707Z,15.00
2022-11-08T17:39:17.524Z,15.00
2022-11-08T17:41:46.056Z,15.00
2022-11-08T17:44:33.625Z,14.80
2022-11-08T17:47:02.181Z,14.70
2022-11-08T17:49:30.860Z,14.60
2022-11-08T17:51:59.782Z,14.50
2022-11-08T17:54:29.924Z,14.50
2022-11-08T17:56:58.917Z,14.50
2022-11-08T17:59:27.679Z,14.50
2022-11-08T18:01:56.289Z,14.50
2022-11-08T18:04:24.957Z,14.50
2022-11-08T18:06:53.406Z,14.40
2022-11-08T18:09:21.968Z,14.40
2022-11-08T18:11:51.901Z,14.50
2022-11-08T18:14:28.105Z,14.60
2022-11-08T18:16:56.889Z,14.50
2022-11-08T18:19:25.243Z,14.60
2022-11-08T18:21:53.781Z,14.60
2022-11-08T18:24:22.396Z,14.60
2022-11-08T18:26:52.184Z,14.60
2022-11-08T18:29:20.578Z,14.50
2022-11-08T18:31:49.676Z,14.50
2022-11-08T18:34:18.030Z,14.50
2022-11-08T18:36:48.860Z,14.60
2022-11-08T18:39:19.662Z,14.60
2022-11-08T18:41:48.299Z,14.60
2022-11-08T18:44:17.993Z,14.50
2022-11-08T18:46:46.166Z,14.50
2022-11-08T18:49:14.684Z,14.50
2022-11-08T18:51:42.723Z,14.60
2022-11-08T18:54:11.219Z,14.50
2022-11-08T18:56:39.474Z,14.50
2022-11-08T18:59:09.129Z,14.50
2022-11-08T19:01:39.905Z,14.50
2022-11-08T19:04:08.749Z,14.50
2022-11-08T19:06:38.018Z,14.50
2022-11-08T19:09:11.872Z,14.50
2022-11-08T19:11:40.797Z,14.40
2022-11-08T19:14:10.247Z,14.40
2022-11-08T19:16:41.067Z,14.50
2022-11-08T19:19:10.928Z,14.50
2022-11-08T19:21:43.659Z,14.50
2022-11-08T19:24:12.796Z,14.50
2022-11-08T19:26:42.092Z,14.50
2022-11-08T19:29:12.267Z,14.50
2022-11-08T19:37:54.699Z,14.60
2022-11-08T19:40:25.678Z,14.50
2022-11-08T19:42:58.499Z,14.50
2022-11-08T19:45:27.873Z,14.50
2022-11-08T19:47:56.926Z,14.50
2022-11-08T19:50:27.273Z,14.50
2022-11-08T19:52:56.187Z,14.50
2022-11-08T19:55:24.647Z,14.50
2022-11-08T19:57:53.089Z,14.60
2022-11-08T20:00:21.451Z,14.60
2022-11-08T20:02:50.903Z,14.60
2022-11-08T20:05:19.786Z,14.50
2022-11-08T20:07:49.561Z,14.40
2022-11-08T20:10:18.022Z,14.40
2022-11-08T20:12:46.454Z,14.40
2022-11-08T20:15:14.770Z,14.30
2022-11-08T20:17:43.242Z,14.30
2022-11-08T20:20:12.967Z,14.40
2022-11-08T20:22:45.534Z,14.40
2022-11-08T20:25:19.981Z,14.40
2022-11-08T20:27:49.013Z,14.40
2022-11-08T20:30:17.813Z,14.50
2022-11-08T20:35:36.625Z,14.60
2022-11-08T20:41:02.348Z,14.60
2022-11-08T20:46:25.645Z,14.50
2022-11-08T20:49:00.096Z,14.50
2022-11-08T20:51:30.123Z,14.60
2022-11-08T20:54:00.213Z,14.60
2022-11-08T20:56:30.901Z,14.60
2022-11-08T20:58:59.617Z,14.60
2022-11-08T21:01:30.668Z,14.60
2022-11-08T21:04:00.815Z,14.50
2022-11-08T21:06:35.588Z,14.60
2022-11-08T21:09:29.655Z,14.60
2022-11-08T21:11:55.715Z,14.60
2022-11-08T21:14:25.105Z,14.60
2022-11-08T21:19:43.135Z,14.50
2022-11-08T21:22:17.875Z,14.50
2022-11-08T21:24:49.432Z,14.40
2022-11-08T21:27:19.895Z,14.20
2022-11-08T21:29:48.517Z,14.10
2022-11-08T21:32:16.994Z,14.10
2022-11-08T21:35:10.374Z,14.10
2022-11-08T21:37:38.632Z,14.30
2022-11-08T21:40:08.016Z,14.40
2022-11-08T21:42:40.225Z,14.40
2022-11-08T21:45:10.930Z,14.40
2022-11-08T21:47:39.215Z,14.50
2022-11-08T21:50:08.633Z,14.50
2022-11-08T21:52:36.918Z,14.50
2022-11-08T21:55:05.885Z,14.50
2022-11-08T21:57:34.272Z,14.50
2022-11-08T22:00:04.300Z,14.50
2022-11-08T22:02:36.543Z,14.50
2022-11-08T22:05:05.488Z,14.50
2022-11-08T22:07:33.948Z,14.60
2022-11-08T22:10:02.186Z,14.60
2022-11-08T22:12:30.403Z,14.50
2022-11-08T22:14:58.714Z,14.50
2022-11-08T22:17:28.382Z,14.50
2022-11-08T22:19:56.604Z,14.60
2022-11-08T22:22:24.933Z,14.60
2022-11-08T22:24:53.156Z,14.50
2022-11-08T22:27:21.318Z,14.50
2022-11-08T22:29:49.469Z,14.50
2022-11-08T22:32:17.657Z,14.50
2022-11-08T22:34:47.165Z,14.50
2022-11-08T22:37:15.312Z,14.40
2022-11-08T22:39:43.406Z,14.40
2022-11-08T22:42:11.621Z,14.30
2022-11-08T22:44:39.726Z,14.30
2022-11-08T22:47:07.927Z,14.30
2022-11-08T22:49:39.783Z,14.30
2022-11-08T22:52:11.940Z,14.30
2022-11-08T22:54:40.035Z,14.30
2022-11-08T22:57:08.167Z,14.20
2022-11-08T22:59:36.384Z,14.10
2022-11-08T23:02:04.564Z,14.10
2022-11-08T23:04:32.685Z,14.20
2022-11-08T23:07:00.857Z,14.20
2022-11-08T23:09:30.414Z,14.10
2022-11-08T23:12:15.906Z,14.10
2022-11-08T23:15:01.341Z,14.10
2022-11-08T23:17:29.501Z,14.10
2022-11-08T23:20:29.552Z,14.20
2022-11-08T23:23:11.597Z,14.20
2022-11-08T23:25:41.121Z,14.20
2022-11-08T23:28:26.591Z,14.10
2022-11-08T23:31:12.398Z,14.10
2022-11-08T23:33:44.381Z,14.10
2022-11-08T23:36:12.571Z,14.10
2022-11-08T23:38:41.225Z,14.00
2022-11-08T23:41:28.778Z,14.00
2022-11-08T23:44:14.582Z,13.90
2022-11-08T23:46:42.748Z,13.90
2022-11-08T23:49:10.908Z,14.00
2022-11-08T23:51:39.105Z,14.00
2022-11-08T23:54:07.235Z,14.00
2022-11-08T23:56:36.824Z,13.90
2022-11-08T23:59:05.043Z,14.00
